sensor_id;sensor_type;location;lat;lon;timestamp;pressure;altitude;pressure_sealevel;temperature;humidity
7333;BME280;3707;43.618;25.342;2023-07-30T00:01:57;99779.25;;;24.97;59.68
7333;BME280;3707;43.618;25.342;2023-07-30T00:04:24;99779.41;;;24.94;61.73
7333;BME280;3707;43.618;25.342;2023-07-30T00:06:51;99776.59;;;24.97;61.62
7333;BME280;3707;43.618;25.342;2023-07-30T00:09:18;99773.84;;;25.00;61.52
7333;BME280;3707;43.618;25.342;2023-07-30T00:11:45;99767.31;;;24.89;60.90
7333;BME280;3707;43.618;25.342;2023-07-30T00:14:13;99777.56;;;24.96;60.52
7333;BME280;3707;43.618;25.342;2023-07-30T00:16:39;99773.41;;;24.91;62.01
7333;BME280;3707;43.618;25.342;2023-07-30T00:19:06;99772.69;;;24.87;63.77
7333;BME280;3707;43.618;25.342;2023-07-30T00:21:33;99773.56;;;24.88;60.16
7333;BME280;3707;43.618;25.342;2023-07-30T00:24:00;99761.63;;;24.78;62.95
7333;BME280;3707;43.618;25.342;2023-07-30T00:26:26;99785.88;;;24.89;60.87
7333;BME280;3707;43.618;25.342;2023-07-30T00:28:54;99788.03;;;24.99;59.62
7333;BME280;3707;43.618;25.342;2023-07-30T00:31:22;99779.19;;;24.80;63.87
7333;BME280;3707;43.618;25.342;2023-07-30T00:33:49;99778.38;;;24.61;65.73
7333;BME280;3707;43.618;25.342;2023-07-30T00:36:16;99773.97;;;24.60;65.21
7333;BME280;3707;43.618;25.342;2023-07-30T00:38:43;99756.50;;;24.37;64.35
7333;BME280;3707;43.618;25.342;2023-07-30T00:41:09;99758.28;;;24.37;64.50
7333;BME280;3707;43.618;25.342;2023-07-30T00:43:36;99771.41;;;24.40;64.72
7333;BME280;3707;43.618;25.342;2023-07-30T00:46:03;99768.88;;;24.37;65.71
7333;BME280;3707;43.618;25.342;2023-07-30T00:48:31;99766.22;;;24.37;66.60
7333;BME280;3707;43.618;25.342;2023-07-30T00:50:59;99764.38;;;24.20;68.24
7333;BME280;3707;43.618;25.342;2023-07-30T00:53:26;99753.97;;;24.15;68.63
7333;BME280;3707;43.618;25.342;2023-07-30T00:55:54;99766.81;;;24.25;71.09
7333;BME280;3707;43.618;25.342;2023-07-30T00:58:21;99750.09;;;24.23;68.85
7333;BME280;3707;43.618;25.342;2023-07-30T01:00:50;99761.56;;;24.23;69.14
7333;BME280;3707;43.618;25.342;2023-07-30T01:03:18;99761.72;;;24.20;69.72
7333;BME280;3707;43.618;25.342;2023-07-30T01:05:46;99702.88;;;23.93;68.39
7333;BME280;3707;43.618;25.342;2023-07-30T01:08:13;99762.63;;;24.19;69.75
7333;BME280;3707;43.618;25.342;2023-07-30T01:10:41;99751.31;;;24.15;70.41
7333;BME280;3707;43.618;25.342;2023-07-30T01:13:09;99761.91;;;24.15;71.60
7333;BME280;3707;43.618;25.342;2023-07-30T01:15:37;99747.19;;;24.08;71.16
7333;BME280;3707;43.618;25.342;2023-07-30T01:18:04;99770.81;;;24.14;71.36
7333;BME280;3707;43.618;25.342;2023-07-30T01:20:31;99760.53;;;24.07;71.95
7333;BME280;3707;43.618;25.342;2023-07-30T01:22:59;99763.91;;;24.10;70.79
7333;BME280;3707;43.618;25.342;2023-07-30T01:25:28;99754.28;;;24.08;71.88
7333;BME280;3707;43.618;25.342;2023-07-30T01:27:59;99763.91;;;24.10;72.16
7333;BME280;3707;43.618;25.342;2023-07-30T01:30:29;99769.34;;;24.07;72.95
7333;BME280;3707;43.618;25.342;2023-07-30T01:32:56;99736.84;;;23.84;73.74
7333;BME280;3707;43.618;25.342;2023-07-30T01:35:26;99767.03;;;24.00;73.48
7333;BME280;3707;43.618;25.342;2023-07-30T01:37:54;99744.06;;;23.80;72.82
7333;BME280;3707;43.618;25.342;2023-07-30T01:40:23;99767.75;;;23.83;74.00
7333;BME280;3707;43.618;25.342;2023-07-30T01:42:50;99762.94;;;23.73;75.01
7333;BME280;3707;43.618;25.342;2023-07-30T01:45:17;99688.88;;;23.31;75.97
7333;BME280;3707;43.618;25.342;2023-07-30T01:47:44;99754.28;;;23.69;75.45
7333;BME280;3707;43.618;25.342;2023-07-30T01:50:11;99758.72;;;23.68;76.23
7333;BME280;3707;43.618;25.342;2023-07-30T01:52:37;99759.69;;;23.66;75.96
7333;BME280;3707;43.618;25.342;2023-07-30T01:55:05;99753.50;;;23.67;75.37
7333;BME280;3707;43.618;25.342;2023-07-30T01:57:33;99712.22;;;23.43;75.62
7333;BME280;3707;43.618;25.342;2023-07-30T02:00:00;99745.69;;;23.64;75.33
7333;BME280;3707;43.618;25.342;2023-07-30T02:02:28;99755.06;;;23.71;76.51
7333;BME280;3707;43.618;25.342;2023-07-30T02:04:55;99752.19;;;23.57;76.95
7333;BME280;3707;43.618;25.342;2023-07-30T02:07:22;99755.84;;;23.33;80.21
7333;BME280;3707;43.618;25.342;2023-07-30T02:09:48;99757.03;;;23.26;80.39
7333;BME280;3707;43.618;25.342;2023-07-30T02:12:15;99761.69;;;23.19;80.43
7333;BME280;3707;43.618;25.342;2023-07-30T02:14:43;99747.53;;;23.20;84.79
7333;BME280;3707;43.618;25.342;2023-07-30T02:17:10;99767.72;;;23.22;87.61
7333;BME280;3707;43.618;25.342;2023-07-30T02:19:37;99768.09;;;23.13;90.35
7333;BME280;3707;43.618;25.342;2023-07-30T02:22:04;99768.78;;;23.18;100.00
7333;BME280;3707;43.618;25.342;2023-07-30T02:24:31;99767.97;;;23.16;100.00
7333;BME280;3707;43.618;25.342;2023-07-30T02:26:57;99770.88;;;23.10;100.00
7333;BME280;3707;43.618;25.342;2023-07-30T02:29:24;99753.66;;;23.00;100.00
7333;BME280;3707;43.618;25.342;2023-07-30T02:31:53;99747.56;;;22.98;100.00
7333;BME280;3707;43.618;25.342;2023-07-30T02:34:19;99768.84;;;22.95;100.00
7333;BME280;3707;43.618;25.342;2023-07-30T02:36:46;99769.88;;;22.91;100.00
7333;BME280;3707;43.618;25.342;2023-07-30T02:39:13;99770.31;;;22.81;100.00
7333;BME280;3707;43.618;25.342;2023-07-30T02:41:40;99776.59;;;22.78;100.00
7333;BME280;3707;43.618;25.342;2023-07-30T02:44:06;99774.94;;;22.76;100.00
7333;BME280;3707;43.618;25.342;2023-07-30T02:46:33;99778.56;;;22.73;100.00
7333;BME280;3707;43.618;25.342;2023-07-30T02:49:01;99760.75;;;22.78;100.00
7333;BME280;3707;43.618;25.342;2023-07-30T02:51:28;99769.72;;;22.74;100.00
7333;BME280;3707;43.618;25.342;2023-07-30T02:53:58;99772.53;;;22.69;100.00
7333;BME280;3707;43.618;25.342;2023-07-30T02:56:25;99776.16;;;22.65;100.00
7333;BME280;3707;43.618;25.342;2023-07-30T02:58:52;99768.31;;;22.64;100.00
7333;BME280;3707;43.618;25.342;2023-07-30T03:01:18;99773.72;;;22.61;100.00
7333;BME280;3707;43.618;25.342;2023-07-30T03:03:45;99759.19;;;22.49;100.00
7333;BME280;3707;43.618;25.342;2023-07-30T03:06:13;99777.47;;;22.55;100.00
7333;BME280;3707;43.618;25.342;2023-07-30T03:08:42;99779.56;;;22.47;100.00
7333;BME280;3707;43.618;25.342;2023-07-30T03:11:09;99764.78;;;22.42;100.00
7333;BME280;3707;43.618;25.342;2023-07-30T03:13:35;99780.38;;;22.48;100.00
7333;BME280;3707;43.618;25.342;2023-07-30T03:16:03;99766.56;;;22.41;100.00
7333;BME280;3707;43.618;25.342;2023-07-30T03:18:29;99783.03;;;22.48;100.00
7333;BME280;3707;43.618;25.342;2023-07-30T03:20:58;99784.50;;;22.55;100.00
7333;BME280;3707;43.618;25.342;2023-07-30T03:23:27;99783.31;;;22.63;100.00
7333;BME280;3707;43.618;25.342;2023-07-30T03:25:54;99788.78;;;22.59;100.00
7333;BME280;3707;43.618;25.342;2023-07-30T03:28:21;99794.88;;;22.61;100.00
7333;BME280;3707;43.618;25.342;2023-07-30T03:30:47;99790.91;;;22.49;100.00
7333;BME280;3707;43.618;25.342;2023-07-30T03:33:14;99779.72;;;22.43;100.00
7333;BME280;3707;43.618;25.342;2023-07-30T03:35:41;99798.69;;;22.54;100.00
7333;BME280;3707;43.618;25.342;2023-07-30T03:38:08;99798.06;;;22.47;100.00
7333;BME280;3707;43.618;25.342;2023-07-30T03:40:36;99783.16;;;22.45;100.00
7333;BME280;3707;43.618;25.342;2023-07-30T03:43:03;99815.84;;;22.89;99.16
7333;BME280;3707;43.618;25.342;2023-07-30T03:45:29;99789.75;;;23.23;97.04
7333;BME280;3707;43.618;25.342;2023-07-30T03:47:57;99817.50;;;23.97;89.68
7333;BME280;3707;43.618;25.342;2023-07-30T03:50:24;99818.25;;;24.58;84.46
7333;BME280;3707;43.618;25.342;2023-07-30T03:52:51;99819.44;;;25.26;82.58
7333;BME280;3707;43.618;25.342;2023-07-30T03:55:18;99807.47;;;25.70;78.08
7333;BME280;3707;43.618;25.342;2023-07-30T03:57:46;99811.63;;;26.43;71.60
7333;BME280;3707;43.618;25.342;2023-07-30T04:00:13;99820.94;;;27.14;69.32
7333;BME280;3707;43.618;25.342;2023-07-30T04:02:39;99836.53;;;27.81;64.15
7333;BME280;3707;43.618;25.342;2023-07-30T04:05:06;99835.91;;;28.50;59.33
7333;BME280;3707;43.618;25.342;2023-07-30T04:07:33;99843.88;;;29.19;54.14
7333;BME280;3707;43.618;25.342;2023-07-30T04:10:00;99828.63;;;29.75;52.41
7333;BME280;3707;43.618;25.342;2023-07-30T04:12:27;99844.97;;;30.35;50.08
7333;BME280;3707;43.618;25.342;2023-07-30T04:14:55;99850.84;;;30.27;49.29
7333;BME280;3707;43.618;25.342;2023-07-30T04:17:21;99844.84;;;30.24;47.32
7333;BME280;3707;43.618;25.342;2023-07-30T04:19:48;99844.53;;;30.28;47.05
7333;BME280;3707;43.618;25.342;2023-07-30T04:22:15;99781.19;;;30.41;47.88
7333;BME280;3707;43.618;25.342;2023-07-30T04:24:42;99816.16;;;31.00;45.65
7333;BME280;3707;43.618;25.342;2023-07-30T04:27:08;99844.66;;;31.61;45.12
7333;BME280;3707;43.618;25.342;2023-07-30T04:29:35;99856.31;;;31.84;45.08
7333;BME280;3707;43.618;25.342;2023-07-30T04:32:04;99860.63;;;32.55;43.34
7333;BME280;3707;43.618;25.342;2023-07-30T04:34:31;99867.09;;;32.97;42.86
7333;BME280;3707;43.618;25.342;2023-07-30T04:36:58;99857.56;;;33.15;42.23
7333;BME280;3707;43.618;25.342;2023-07-30T04:39:24;99862.28;;;33.33;42.02
7333;BME280;3707;43.618;25.342;2023-07-30T04:41:51;99861.09;;;33.58;41.45
7333;BME280;3707;43.618;25.342;2023-07-30T04:44:18;99810.00;;;33.69;40.61
7333;BME280;3707;43.618;25.342;2023-07-30T04:46:45;99854.00;;;34.21;40.28
7333;BME280;3707;43.618;25.342;2023-07-30T04:49:13;99864.44;;;33.51;40.54
7333;BME280;3707;43.618;25.342;2023-07-30T04:51:40;99861.78;;;33.39;40.14
7333;BME280;3707;43.618;25.342;2023-07-30T04:54:06;99864.88;;;33.35;40.30
7333;BME280;3707;43.618;25.342;2023-07-30T04:56:33;99867.03;;;33.41;41.20
7333;BME280;3707;43.618;25.342;2023-07-30T04:59:00;99866.25;;;33.50;41.11
7333;BME280;3707;43.618;25.342;2023-07-30T05:01:27;99861.22;;;33.68;40.64
7333;BME280;3707;43.618;25.342;2023-07-30T05:03:54;99864.34;;;33.41;40.78
7333;BME280;3707;43.618;25.342;2023-07-30T05:06:22;99870.09;;;33.36;40.59
7333;BME280;3707;43.618;25.342;2023-07-30T05:08:49;99866.22;;;33.61;40.42
7333;BME280;3707;43.618;25.342;2023-07-30T05:11:16;99871.16;;;33.56;40.77
7333;BME280;3707;43.618;25.342;2023-07-30T05:13:43;99879.94;;;33.58;40.73
7333;BME280;3707;43.618;25.342;2023-07-30T05:16:09;99880.16;;;33.77;40.34
7333;BME280;3707;43.618;25.342;2023-07-30T05:18:36;99882.50;;;33.71;39.38
7333;BME280;3707;43.618;25.342;2023-07-30T05:21:03;99858.94;;;33.52;39.80
7333;BME280;3707;43.618;25.342;2023-07-30T05:23:31;99824.63;;;33.45;39.84
7333;BME280;3707;43.618;25.342;2023-07-30T05:25:58;99875.72;;;33.45;39.80
7333;BME280;3707;43.618;25.342;2023-07-30T05:28:26;99884.78;;;33.75;39.79
7333;BME280;3707;43.618;25.342;2023-07-30T05:30:52;99886.75;;;33.73;40.13
7333;BME280;3707;43.618;25.342;2023-07-30T05:33:19;99888.56;;;34.05;39.20
7333;BME280;3707;43.618;25.342;2023-07-30T05:35:46;99840.03;;;33.43;39.02
7333;BME280;3707;43.618;25.342;2023-07-30T05:38:13;99880.91;;;33.14;39.71
7333;BME280;3707;43.618;25.342;2023-07-30T05:40:41;99891.03;;;32.55;41.14
7333;BME280;3707;43.618;25.342;2023-07-30T05:43:08;99871.50;;;31.96;41.72
7333;BME280;3707;43.618;25.342;2023-07-30T05:45:35;99895.22;;;31.89;42.59
7333;BME280;3707;43.618;25.342;2023-07-30T05:48:02;99869.53;;;31.63;43.15
7333;BME280;3707;43.618;25.342;2023-07-30T05:50:28;99894.06;;;31.70;43.39
7333;BME280;3707;43.618;25.342;2023-07-30T05:52:58;99897.03;;;31.54;45.14
7333;BME280;3707;43.618;25.342;2023-07-30T05:55:25;99887.16;;;31.55;45.41
7333;BME280;3707;43.618;25.342;2023-07-30T05:57:53;99900.09;;;31.84;45.25
7333;BME280;3707;43.618;25.342;2023-07-30T06:00:20;99904.25;;;31.88;44.39
7333;BME280;3707;43.618;25.342;2023-07-30T06:02:47;99895.00;;;31.45;43.79
7333;BME280;3707;43.618;25.342;2023-07-30T06:05:14;99894.84;;;30.99;45.24
7333;BME280;3707;43.618;25.342;2023-07-30T06:07:41;99884.47;;;30.44;46.82
7333;BME280;3707;43.618;25.342;2023-07-30T06:10:08;99896.59;;;30.49;47.14
7333;BME280;3707;43.618;25.342;2023-07-30T06:12:35;99891.41;;;30.34;48.91
7333;BME280;3707;43.618;25.342;2023-07-30T06:15:05;99893.75;;;30.13;49.46
7333;BME280;3707;43.618;25.342;2023-07-30T06:17:32;99889.25;;;30.14;52.36
7333;BME280;3707;43.618;25.342;2023-07-30T06:19:59;99870.81;;;29.57;50.57
7333;BME280;3707;43.618;25.342;2023-07-30T06:22:26;99876.00;;;29.46;51.23
7333;BME280;3707;43.618;25.342;2023-07-30T06:24:53;99883.69;;;29.10;52.66
7333;BME280;3707;43.618;25.342;2023-07-30T06:27:19;99878.41;;;28.67;56.45
7333;BME280;3707;43.618;25.342;2023-07-30T06:29:46;99875.31;;;28.45;58.23
7333;BME280;3707;43.618;25.342;2023-07-30T06:32:14;99884.47;;;28.41;59.28
7333;BME280;3707;43.618;25.342;2023-07-30T06:34:41;99879.28;;;28.10;62.92
7333;BME280;3707;43.618;25.342;2023-07-30T06:37:08;99882.63;;;28.13;63.29
7333;BME280;3707;43.618;25.342;2023-07-30T06:39:35;99870.25;;;28.26;65.86
7333;BME280;3707;43.618;25.342;2023-07-30T06:42:01;99882.34;;;28.18;65.25
7333;BME280;3707;43.618;25.342;2023-07-30T06:44:28;99875.78;;;28.23;62.96
7333;BME280;3707;43.618;25.342;2023-07-30T06:46:55;99870.16;;;28.14;59.54
7333;BME280;3707;43.618;25.342;2023-07-30T06:49:23;99857.03;;;28.25;63.89
7333;BME280;3707;43.618;25.342;2023-07-30T06:51:50;99845.78;;;28.20;65.19
7333;BME280;3707;43.618;25.342;2023-07-30T06:54:17;99869.53;;;28.38;65.05
7333;BME280;3707;43.618;25.342;2023-07-30T06:56:43;99858.84;;;28.52;69.72
7333;BME280;3707;43.618;25.342;2023-07-30T06:59:10;99855.72;;;28.46;71.94
7333;BME280;3707;43.618;25.342;2023-07-30T07:01:37;99855.50;;;28.35;69.95
7333;BME280;3707;43.618;25.342;2023-07-30T07:04:04;99846.56;;;28.50;72.93
7333;BME280;3707;43.618;25.342;2023-07-30T07:06:32;99831.03;;;28.56;69.77
7333;BME280;3707;43.618;25.342;2023-07-30T07:08:59;99842.44;;;28.58;70.06
7333;BME280;3707;43.618;25.342;2023-07-30T07:11:25;99845.78;;;28.62;71.95
7333;BME280;3707;43.618;25.342;2023-07-30T07:13:52;99836.34;;;28.85;72.36
7333;BME280;3707;43.618;25.342;2023-07-30T07:16:19;99829.88;;;28.89;71.46
7333;BME280;3707;43.618;25.342;2023-07-30T07:18:46;99826.84;;;29.08;70.37
7333;BME280;3707;43.618;25.342;2023-07-30T07:21:14;99815.06;;;28.97;68.72
7333;BME280;3707;43.618;25.342;2023-07-30T07:23:42;99818.53;;;29.12;69.46
7333;BME280;3707;43.618;25.342;2023-07-30T07:26:09;99821.00;;;29.15;67.30
7333;BME280;3707;43.618;25.342;2023-07-30T07:28:35;99814.31;;;29.22;69.09
7333;BME280;3707;43.618;25.342;2023-07-30T07:31:02;99827.47;;;29.39;68.67
7333;BME280;3707;43.618;25.342;2023-07-30T07:33:29;99828.91;;;29.31;66.05
7333;BME280;3707;43.618;25.342;2023-07-30T07:36:03;99836.84;;;29.32;70.12
7333;BME280;3707;43.618;25.342;2023-07-30T07:38:31;99827.66;;;29.22;67.81
7333;BME280;3707;43.618;25.342;2023-07-30T07:40:59;99824.66;;;29.41;68.10
7333;BME280;3707;43.618;25.342;2023-07-30T07:43:26;99826.13;;;29.59;65.24
7333;BME280;3707;43.618;25.342;2023-07-30T07:45:53;99829.34;;;29.77;64.64
7333;BME280;3707;43.618;25.342;2023-07-30T07:48:20;99797.59;;;29.72;66.08
7333;BME280;3707;43.618;25.342;2023-07-30T07:50:47;99821.44;;;29.75;64.76
7333;BME280;3707;43.618;25.342;2023-07-30T07:53:13;99826.91;;;29.74;65.43
7333;BME280;3707;43.618;25.342;2023-07-30T07:55:40;99824.41;;;29.58;65.79
7333;BME280;3707;43.618;25.342;2023-07-30T07:58:08;99834.50;;;29.80;69.01
7333;BME280;3707;43.618;25.342;2023-07-30T08:00:35;99823.47;;;29.72;64.08
7333;BME280;3707;43.618;25.342;2023-07-30T08:03:02;99826.78;;;29.75;64.50
7333;BME280;3707;43.618;25.342;2023-07-30T08:05:29;99830.94;;;29.67;64.12
7333;BME280;3707;43.618;25.342;2023-07-30T08:07:56;99818.44;;;29.67;65.45
7333;BME280;3707;43.618;25.342;2023-07-30T08:10:22;99821.00;;;29.69;65.49
7333;BME280;3707;43.618;25.342;2023-07-30T08:12:49;99812.31;;;29.65;68.55
7333;BME280;3707;43.618;25.342;2023-07-30T08:15:17;99816.94;;;29.76;65.56
7333;BME280;3707;43.618;25.342;2023-07-30T08:17:44;99815.38;;;29.86;65.14
7333;BME280;3707;43.618;25.342;2023-07-30T08:20:11;99810.63;;;30.04;65.29
7333;BME280;3707;43.618;25.342;2023-07-30T08:22:38;99797.03;;;30.07;66.15
7333;BME280;3707;43.618;25.342;2023-07-30T08:25:05;99813.72;;;30.10;65.02
7333;BME280;3707;43.618;25.342;2023-07-30T08:27:32;99804.81;;;30.22;65.57
7333;BME280;3707;43.618;25.342;2023-07-30T08:29:59;99806.72;;;30.33;60.67
7333;BME280;3707;43.618;25.342;2023-07-30T08:32:27;99795.28;;;30.43;58.83
7333;BME280;3707;43.618;25.342;2023-07-30T08:34:54;99795.47;;;30.40;59.93
7333;BME280;3707;43.618;25.342;2023-07-30T08:37:21;99790.91;;;30.55;61.13
7333;BME280;3707;43.618;25.342;2023-07-30T08:39:48;99784.69;;;30.55;57.13
7333;BME280;3707;43.618;25.342;2023-07-30T08:42:15;99794.81;;;30.75;55.87
7333;BME280;3707;43.618;25.342;2023-07-30T08:44:42;99787.38;;;30.91;60.44
7333;BME280;3707;43.618;25.342;2023-07-30T08:47:09;99786.84;;;30.98;59.12
7333;BME280;3707;43.618;25.342;2023-07-30T08:49:37;99788.50;;;31.12;57.93
7333;BME280;3707;43.618;25.342;2023-07-30T08:52:08;99785.00;;;31.23;57.81
7333;BME280;3707;43.618;25.342;2023-07-30T08:54:36;99785.41;;;31.29;55.54
7333;BME280;3707;43.618;25.342;2023-07-30T08:57:04;99790.38;;;31.23;52.91
7333;BME280;3707;43.618;25.342;2023-07-30T08:59:33;99771.13;;;31.18;53.61
7333;BME280;3707;43.618;25.342;2023-07-30T09:02:04;99792.31;;;31.21;52.96
7333;BME280;3707;43.618;25.342;2023-07-30T09:04:37;99785.13;;;31.21;53.53
7333;BME280;3707;43.618;25.342;2023-07-30T09:07:08;99774.25;;;31.35;54.47
7333;BME280;3707;43.618;25.342;2023-07-30T09:09:35;99787.88;;;31.56;53.57
7333;BME280;3707;43.618;25.342;2023-07-30T09:12:13;99786.19;;;31.66;51.67
7333;BME280;3707;43.618;25.342;2023-07-30T09:14:39;99776.59;;;31.75;50.87
7333;BME280;3707;43.618;25.342;2023-07-30T09:17:10;99781.25;;;31.95;49.08
7333;BME280;3707;43.618;25.342;2023-07-30T09:19:38;99770.78;;;32.14;49.21
7333;BME280;3707;43.618;25.342;2023-07-30T09:22:06;99776.56;;;32.10;46.88
7333;BME280;3707;43.618;25.342;2023-07-30T09:24:32;99779.94;;;32.12;46.63
7333;BME280;3707;43.618;25.342;2023-07-30T09:27:02;99785.06;;;32.15;45.43
7333;BME280;3707;43.618;25.342;2023-07-30T09:29:29;99769.06;;;32.02;45.60
7333;BME280;3707;43.618;25.342;2023-07-30T09:31:56;99769.81;;;32.15;45.88
7333;BME280;3707;43.618;25.342;2023-07-30T09:34:24;99765.06;;;32.19;45.24
7333;BME280;3707;43.618;25.342;2023-07-30T09:36:53;99735.56;;;32.30;45.92
7333;BME280;3707;43.618;25.342;2023-07-30T09:39:22;99756.75;;;32.55;44.88
7333;BME280;3707;43.618;25.342;2023-07-30T09:41:50;99755.06;;;32.43;42.90
7333;BME280;3707;43.618;25.342;2023-07-30T09:44:17;99735.31;;;32.22;42.59
7333;BME280;3707;43.618;25.342;2023-07-30T09:46:46;99746.28;;;32.41;41.20
7333;BME280;3707;43.618;25.342;2023-07-30T09:49:14;99753.13;;;32.45;41.37
7333;BME280;3707;43.618;25.342;2023-07-30T09:51:41;99737.28;;;32.42;41.15
7333;BME280;3707;43.618;25.342;2023-07-30T09:54:11;99747.88;;;32.66;40.49
7333;BME280;3707;43.618;25.342;2023-07-30T09:56:40;99746.13;;;32.54;39.45
7333;BME280;3707;43.618;25.342;2023-07-30T09:59:08;99740.91;;;32.74;39.21
7333;BME280;3707;43.618;25.342;2023-07-30T10:01:38;99726.78;;;32.93;37.75
7333;BME280;3707;43.618;25.342;2023-07-30T10:04:08;99726.88;;;33.14;38.18
7333;BME280;3707;43.618;25.342;2023-07-30T10:06:38;99732.66;;;33.30;37.63
7333;BME280;3707;43.618;25.342;2023-07-30T10:09:08;99734.88;;;33.25;37.04
7333;BME280;3707;43.618;25.342;2023-07-30T10:11:36;99727.59;;;33.05;36.29
7333;BME280;3707;43.618;25.342;2023-07-30T10:14:04;99721.25;;;33.17;36.54
7333;BME280;3707;43.618;25.342;2023-07-30T10:16:31;99719.28;;;33.19;36.74
7333;BME280;3707;43.618;25.342;2023-07-30T10:18:58;99722.69;;;33.21;36.97
7333;BME280;3707;43.618;25.342;2023-07-30T10:21:26;99709.59;;;32.96;36.81
7333;BME280;3707;43.618;25.342;2023-07-30T10:23:59;99723.06;;;32.73;36.84
7333;BME280;3707;43.618;25.342;2023-07-30T10:26:29;99713.06;;;32.64;34.81
7333;BME280;3707;43.618;25.342;2023-07-30T10:29:13;99695.66;;;32.59;34.54
7333;BME280;3707;43.618;25.342;2023-07-30T10:31:40;99708.69;;;32.63;34.51
7333;BME280;3707;43.618;25.342;2023-07-30T10:34:08;99706.88;;;32.53;34.74
7333;BME280;3707;43.618;25.342;2023-07-30T10:36:41;99700.03;;;32.60;34.41
7333;BME280;3707;43.618;25.342;2023-07-30T10:39:14;99692.78;;;32.71;35.39
7333;BME280;3707;43.618;25.342;2023-07-30T10:41:43;99704.53;;;32.70;34.41
7333;BME280;3707;43.618;25.342;2023-07-30T10:44:18;99693.34;;;32.86;34.51
7333;BME280;3707;43.618;25.342;2023-07-30T10:46:45;99695.44;;;32.82;35.56
7333;BME280;3707;43.618;25.342;2023-07-30T10:49:12;99676.78;;;32.81;36.72
7333;BME280;3707;43.618;25.342;2023-07-30T10:51:39;99690.28;;;32.90;36.29
7333;BME280;3707;43.618;25.342;2023-07-30T10:54:06;99680.69;;;33.09;37.48
7333;BME280;3707;43.618;25.342;2023-07-30T10:56:34;99672.06;;;33.26;36.20
7333;BME280;3707;43.618;25.342;2023-07-30T10:59:05;99679.47;;;33.54;36.18
7333;BME280;3707;43.618;25.342;2023-07-30T11:01:36;99685.28;;;33.70;35.37
7333;BME280;3707;43.618;25.342;2023-07-30T11:04:06;99659.75;;;33.44;35.46
7333;BME280;3707;43.618;25.342;2023-07-30T11:06:32;99659.63;;;33.25;35.33
7333;BME280;3707;43.618;25.342;2023-07-30T11:08:59;99681.06;;;33.36;35.61
7333;BME280;3707;43.618;25.342;2023-07-30T11:11:26;99669.72;;;33.53;35.52
7333;BME280;3707;43.618;25.342;2023-07-30T11:13:54;99654.53;;;33.63;35.39
7333;BME280;3707;43.618;25.342;2023-07-30T11:16:22;99664.25;;;33.85;35.28
7333;BME280;3707;43.618;25.342;2023-07-30T11:18:49;99661.06;;;33.70;35.21
7333;BME280;3707;43.618;25.342;2023-07-30T11:21:17;99648.03;;;33.45;35.25
7333;BME280;3707;43.618;25.342;2023-07-30T11:23:45;99654.66;;;33.41;34.89
7333;BME280;3707;43.618;25.342;2023-07-30T11:26:14;99627.34;;;33.25;35.61
7333;BME280;3707;43.618;25.342;2023-07-30T11:28:41;99654.53;;;33.63;35.64
7333;BME280;3707;43.618;25.342;2023-07-30T11:31:09;99643.41;;;33.57;34.77
7333;BME280;3707;43.618;25.342;2023-07-30T11:33:40;99649.22;;;33.82;35.20
7333;BME280;3707;43.618;25.342;2023-07-30T11:36:08;99659.38;;;34.00;35.05
7333;BME280;3707;43.618;25.342;2023-07-30T11:38:37;99647.88;;;33.98;34.89
7333;BME280;3707;43.618;25.342;2023-07-30T11:41:05;99612.13;;;33.86;34.41
7333;BME280;3707;43.618;25.342;2023-07-30T11:43:36;99626.25;;;33.78;34.67
7333;BME280;3707;43.618;25.342;2023-07-30T11:46:07;99640.16;;;33.83;34.47
7333;BME280;3707;43.618;25.342;2023-07-30T11:48:34;99641.34;;;33.91;34.35
7333;BME280;3707;43.618;25.342;2023-07-30T11:51:03;99640.41;;;34.11;34.14
7333;BME280;3707;43.618;25.342;2023-07-30T11:53:45;99641.47;;;34.29;34.32
7333;BME280;3707;43.618;25.342;2023-07-30T11:56:19;99646.63;;;34.42;33.67
7333;BME280;3707;43.618;25.342;2023-07-30T11:58:47;99617.41;;;34.37;33.87
7333;BME280;3707;43.618;25.342;2023-07-30T12:01:14;99637.84;;;34.49;34.07
7333;BME280;3707;43.618;25.342;2023-07-30T12:03:41;99628.75;;;34.50;33.70
7333;BME280;3707;43.618;25.342;2023-07-30T12:06:11;99622.25;;;34.53;33.33
7333;BME280;3707;43.618;25.342;2023-07-30T12:08:38;99602.88;;;34.09;33.71
7333;BME280;3707;43.618;25.342;2023-07-30T12:11:06;99614.28;;;34.32;33.94
7333;BME280;3707;43.618;25.342;2023-07-30T12:13:33;99611.16;;;34.46;34.02
7333;BME280;3707;43.618;25.342;2023-07-30T12:16:01;99607.22;;;34.41;33.98
7333;BME280;3707;43.618;25.342;2023-07-30T12:18:28;99605.25;;;34.52;33.71
7333;BME280;3707;43.618;25.342;2023-07-30T12:20:55;99601.31;;;34.66;33.93
7333;BME280;3707;43.618;25.342;2023-07-30T12:23:24;99594.31;;;34.44;32.67
7333;BME280;3707;43.618;25.342;2023-07-30T12:25:51;99587.09;;;34.54;33.16
7333;BME280;3707;43.618;25.342;2023-07-30T12:28:18;99583.41;;;34.46;32.62
7333;BME280;3707;43.618;25.342;2023-07-30T12:30:46;99568.94;;;34.27;32.81
7333;BME280;3707;43.618;25.342;2023-07-30T12:33:12;99575.44;;;34.25;33.49
7333;BME280;3707;43.618;25.342;2023-07-30T12:35:39;99577.50;;;34.02;33.17
7333;BME280;3707;43.618;25.342;2023-07-30T12:38:06;99576.78;;;34.00;33.45
7333;BME280;3707;43.618;25.342;2023-07-30T12:40:34;99567.16;;;34.07;33.63
7333;BME280;3707;43.618;25.342;2023-07-30T12:43:02;99569.41;;;33.93;35.16
7333;BME280;3707;43.618;25.342;2023-07-30T12:45:29;99554.34;;;34.20;34.25
7333;BME280;3707;43.618;25.342;2023-07-30T12:47:57;99555.88;;;34.23;34.17
7333;BME280;3707;43.618;25.342;2023-07-30T12:50:23;99552.94;;;34.45;34.51
7333;BME280;3707;43.618;25.342;2023-07-30T12:52:50;99553.22;;;34.42;33.68
7333;BME280;3707;43.618;25.342;2023-07-30T12:55:17;99547.13;;;34.21;34.43
7333;BME280;3707;43.618;25.342;2023-07-30T12:57:45;99542.72;;;34.20;34.43
7333;BME280;3707;43.618;25.342;2023-07-30T13:00:13;99541.16;;;34.17;34.83
7333;BME280;3707;43.618;25.342;2023-07-30T13:02:39;99538.88;;;34.32;34.62
7333;BME280;3707;43.618;25.342;2023-07-30T13:05:06;99517.63;;;34.29;33.96
7333;BME280;3707;43.618;25.342;2023-07-30T13:07:33;99478.53;;;34.44;33.49
7333;BME280;3707;43.618;25.342;2023-07-30T13:10:04;99530.50;;;35.12;32.59
7333;BME280;3707;43.618;25.342;2023-07-30T13:12:32;99521.13;;;34.97;31.99